Date,TemperatureHighF,TemperatureAvgF,TemperatureLowF,DewpointHighF,DewpointAvgF,DewpointLowF,HumidityHigh,HumidityAvg,HumidityLow,PressureMaxIn,PressureMinIn,WindSpeedMaxMPH,WindSpeedAvgMPH,GustSpeedMaxMPH,PrecipitationSumIn
2013-1-1,82.1,78.6,75.4,74.6,71.4,68.7,87,79,73,30.06,29.96,5,3,15,0.05
2013-1-2,83.2,78.3,71.5,71.7,69.1,64.8,84,74,63,30.03,29.94,5,3,16,0.00
2013-1-3,81.5,78.6,74.1,74.3,72.4,69.0,92,81,70,30.07,29.98,15,4,18,0.03
2013-1-4,83.3,79.3,75.1,73.6,72.2,70.4,87,79,70,30.14,30.04,6,3,17,0.00
2013-1-5,82.4,79.8,78.5,73.1,71.5,70.3,80,76,70,30.17,30.06,7,6,19,0.00
2013-1-6,83.3,79.9,77.5,72.4,71.2,69.3,83,75,67,30.11,30.02,7,6,19,0.00
2013-1-7,83.0,79.2,73.2,72.5,71.5,69.9,93,78,68,30.09,30.00,15,5,22,0.27
2013-1-8,79.5,77.9,75.2,72.8,70.6,69.3,85,78,75,30.13,30.01,14,4,20,0.00
2013-1-9,82.1,79.0,74.4,71.7,69.8,67.9,84,74,63,30.16,30.05,8,7,24,0.01
2013-1-10,80.1,77.5,73.5,71.8,70.2,67.9,92,78,71,30.14,30.04,8,6,21,0.11
2013-1-11,80.5,77.0,75.1,70.6,69.3,66.9,83,77,70,30.06,29.96,6,5,17,0.02
2013-1-12,82.4,77.3,72.7,72.3,70.0,67.7,91,79,70,29.98,29.92,6,4,18,0.22
2013-1-13,80.3,77.0,74.7,68.6,65.7,63.6,77,68,59,30.01,29.94,8,4,14,0.00
2013-1-14,80.0,76.9,71.4,68.5,66.3,64.0,87,70,61,30.04,29.95,11,3,13,0.06
2013-1-15,81.2,78.0,71.8,71.5,69.3,66.4,89,75,70,30.02,29.94,18,5,18,0.06
2013-1-16,80.2,75.8,71.4,71.7,68.7,64.1,90,79,66,30.04,29.93,15,4,15,0.01
2013-1-17,82.3,79.0,71.7,71.2,69.6,66.7,90,73,62,30.05,29.95,20,4,20,0.01
2013-1-18,81.2,76.3,71.5,73.0,70.4,68.4,93,82,70,30.07,29.97,17,3,17,0.12
2013-1-19,81.5,78.1,76.2,72.4,69.9,67.7,85,76,70,30.08,29.97,14,4,14,0.00
2013-1-20,82.4,77.7,73.1,72.6,70.4,67.6,87,78,66,30.05,29.95,13,2,13,0.00
2013-1-21,81.9,75.6,69.9,74.1,70.9,67.8,94,85,75,30.01,29.92,11,2,11,0.00
2013-1-22,83.5,77.5,71.7,74.1,71.4,68.3,92,82,72,30.05,29.95,15,2,15,0.00
2013-1-23,83.2,80.4,71.8,74.7,73.3,69.7,94,79,73,30.09,29.99,15,3,15,0.01
2013-1-24,82.0,76.2,71.8,72.8,70.7,69.2,94,83,71,30.08,29.98,9,2,14,0.06
2013-1-25,82.8,75.8,68.9,73.5,70.0,66.2,92,83,68,30.07,29.98,12,2,12,0.00
2013-1-26,81.5,77.3,73.3,74.0,72.4,70.7,94,85,75,30.07,29.99,6,4,22,0.29
2013-1-27,82.1,78.3,73.9,74.6,72.1,70.1,90,81,74,30.11,30.01,5,3,13,0.03
2013-1-28,82.0,78.6,74.9,73.2,71.5,69.7,89,79,72,30.15,30.04,6,4,15,0.04
2013-1-29,81.6,76.7,72.2,72.9,70.7,69.0,90,82,72,30.10,30.00,6,3,16,0.08
2013-1-30,82.1,77.2,72.9,72.1,70.6,68.9,92,80,69,30.08,30.00,7,4,17,0.08
2013-1-31,81.8,78.0,71.8,74.5,72.7,69.7,94,84,75,30.07,29.98,14,3,15,0.10
2013-2-1,79.1,74.7,72.1,72.8,71.2,69.4,94,89,80,30.06,29.98,13,2,15,0.22
2013-2-2,81.4,76.4,67.6,70.0,68.0,64.2,89,76,63,30.04,29.94,11,3,13,0.16
2013-2-3,82.8,76.6,69.5,70.2,67.7,63.7,87,75,62,30.00,29.88,17,2,17,0.00
2013-2-4,81.8,73.8,65.6,71.0,65.8,62.5,92,77,57,30.00,29.88,12,2,12,0.00
2013-2-5,82.3,75.6,68.4,70.5,67.0,61.3,91,75,60,30.03,29.93,16,3,16,0.06
2013-2-6,81.5,76.1,70.0,72.0,69.6,65.3,93,81,65,30.02,29.92,22,3,22,0.11
2013-2-7,82.5,77.0,69.3,73.6,71.1,66.7,93,82,71,29.99,29.89,16,3,16,0.00
2013-2-8,82.4,76.2,72.2,73.7,71.2,68.7,93,85,71,30.00,29.90,18,3,18,0.15
2013-2-9,82.6,77.8,72.2,72.9,70.5,68.2,91,79,69,30.02,29.92,12,3,14,0.00
2013-2-10,82.8,77.1,69.2,71.8,69.7,65.8,90,78,67,30.07,29.96,21,3,21,0.03
2013-2-11,80.3,76.8,73.7,73.1,70.2,65.3,89,80,72,30.09,30.00,25,6,25,0.15
2013-2-12,81.3,77.2,74.6,68.9,65.9,62.3,74,68,60,30.09,30.01,15,4,16,0.00
2013-2-13,81.5,77.3,70.5,69.8,67.2,64.4,83,71,60,30.07,29.97,14,3,14,0.00
2013-2-14,81.6,76.9,71.5,73.1,71.0,68.7,91,82,73,30.08,29.97,15,3,15,0.07
2013-2-15,82.6,76.2,71.7,73.5,70.6,68.6,92,83,71,30.07,29.96,16,2,16,0.00
2013-2-16,85.0,78.4,72.1,72.5,69.9,67.1,88,76,57,30.02,29.91,19,3,19,0.00
2013-2-17,81.9,76.2,72.2,74.0,70.8,68.5,91,84,73,30.06,29.94,15,2,15,0.16
2013-2-18,83.0,76.0,67.7,73.9,69.9,64.0,92,82,71,30.10,29.99,17,3,17,0.01
2013-2-19,81.2,76.7,72.4,72.9,70.0,67.7,89,80,71,30.10,30.01,22,4,22,0.09
2013-2-20,81.8,77.5,74.6,72.7,70.6,68.3,88,79,67,30.05,29.92,6,4,18,0.01
2013-2-21,83.6,78.5,74.8,73.2,71.2,69.4,89,79,66,30.02,29.91,6,4,18,0.01
2013-2-22,82.4,76.8,69.3,72.7,70.0,65.5,88,80,71,30.05,29.95,6,3,14,0.00
2013-2-23,81.7,77.8,75.8,71.4,69.4,67.4,82,75,67,30.04,29.95,6,4,15,0.00
2013-2-24,81.9,77.8,72.3,72.5,70.3,66.7,86,78,72,30.02,29.91,6,4,16,0.00
2013-2-25,81.9,77.5,72.7,72.4,70.5,68.6,89,79,70,29.98,29.88,6,3,17,0.00
2013-2-26,82.6,78.4,75.9,72.7,71.5,68.9,84,80,68,30.03,29.93,12,4,19,0.00
2013-2-27,86.3,79.0,74.5,73.4,71.3,69.2,88,78,58,30.02,29.92,16,4,17,0.00
2013-2-28,83.1,77.3,70.7,72.5,69.4,66.4,87,77,65,30.00,29.87,12,4,15,0.00
2013-3-1,83.5,75.8,66.9,71.8,68.6,64.2,91,79,67,29.97,29.84,10,3,13,0.00
2013-3-2,82.4,76.0,66.0,70.7,66.9,62.7,90,74,62,29.95,29.84,9,3,14,0.00
2013-3-3,88.4,77.4,66.4,74.1,69.4,63.4,91,77,56,29.97,29.85,12,3,17,0.00
2013-3-4,82.4,77.1,72.2,74.8,72.0,69.2,92,85,74,30.02,29.92,9,3,17,0.55
2013-3-5,77.9,75.3,71.4,72.1,69.6,65.4,95,83,71,30.07,29.97,9,4,13,0.23
2013-3-6,80.7,76.3,70.4,70.0,67.6,64.8,87,75,67,30.05,29.94,7,2,11,0.00
2013-3-7,83.1,76.2,69.1,75.2,70.6,66.4,91,83,74,30.03,29.92,5,2,10,0.00
2013-3-8,80.7,75.6,71.2,71.6,68.6,63.3,92,80,61,30.03,29.94,6,2,10,0.03
2013-3-9,80.3,73.3,67.7,70.5,67.3,64.4,90,82,69,30.02,29.93,7,3,10,0.00
2013-3-10,80.1,76.4,71.4,67.9,65.6,63.5,88,70,59,30.00,29.92,8,4,12,0.01
2013-3-15,82.3,79.7,76.9,67.5,63.8,61.8,67,59,50,30.00,29.89,6,3,10,0.00
2013-3-16,82.5,76.5,69.6,71.2,67.1,64.2,86,73,59,30.02,29.93,9,3,13,0.00
2013-3-18,79.4,76.7,75.7,71.6,70.2,69.5,82,81,77,30.02,29.97,8,5,18,0.00
2013-3-19,76.6,75.1,72.8,70.5,70.0,68.8,90,84,81,30.00,29.94,10,4,14,0.09
2013-3-30,77.4,76.7,76.2,72.0,71.4,70.9,86,84,81,30.10,30.01,11,7,24,0.13
2013-3-31,79.1,76.9,73.2,73.2,71.9,70.4,91,85,81,30.10,30.02,8,5,21,0.15
2013-4-24,80.3,76.5,73.5,73.2,71.5,70.6,91,85,77,29.98,29.91,3,1,6,0.08
2013-4-25,83.7,77.8,70.4,73.6,71.0,68.0,92,80,69,30.00,29.92,7,2,12,0.00
2013-4-26,82.9,77.9,71.4,72.6,70.7,67.7,89,79,70,30.00,29.92,7,2,10,0.00
2013-4-27,80.1,74.5,71.7,73.8,70.2,68.3,90,87,79,29.97,29.91,4,1,8,0.03
2013-5-7,79.6,76.5,75.9,75.8,74.1,73.1,94,92,87,30.06,29.97,3,1,9,0.07
2013-5-8,85.8,77.7,75.1,78.9,74.9,73.2,94,91,80,30.05,29.98,8,3,16,0.36
2013-5-9,83.0,80.6,75.7,76.6,75.5,74.2,95,85,78,30.08,30.01,9,5,18,3.30
2013-5-10,75.9,73.7,71.7,71.1,70.5,69.9,94,90,83,30.05,30.01,6,3,22,0.91
2013-5-11,76.0,73.1,70.8,71.9,70.1,69.0,94,90,85,30.01,29.95,5,2,10,0.00
2013-5-12,81.7,79.1,76.7,75.8,74.4,73.2,89,86,78,29.97,29.90,3,1,7,0.00
2013-5-13,76.0,75.7,75.5,72.9,72.8,72.7,91,91,90,29.96,29.95,3,2,5,0.00
2013-5-17,83.2,81.3,79.1,74.4,73.5,72.5,81,77,74,30.04,29.96,8,5,14,0.00
2013-5-18,84.6,80.8,73.5,74.8,73.1,70.1,90,78,69,30.05,29.96,10,4,14,0.00
2013-5-19,79.9,77.3,75.9,73.2,72.2,71.4,86,84,80,30.00,29.96,8,2,12,0.00
2013-5-20,84.2,82.5,79.8,75.5,74.3,72.7,80,77,73,30.02,29.93,15,7,17,0.13
2013-5-21,84.5,80.8,77.2,75.8,73.8,71.3,85,79,74,29.99,29.91,11,5,19,0.00
2013-5-22,82.0,77.8,74.1,75.6,74.1,71.6,94,88,80,29.99,29.91,11,6,18,1.01
2013-5-23,83.8,81.1,79.8,75.1,74.0,72.0,83,79,75,30.03,29.96,13,6,17,0.01
2013-5-24,84.7,80.6,75.6,77.1,74.9,71.8,88,83,75,30.03,29.93,9,4,18,0.02
2013-5-25,85.5,80.3,76.6,76.3,74.9,73.8,93,84,72,30.03,29.94,9,3,21,0.06
2013-5-26,85.0,81.2,77.7,78.1,75.8,74.5,91,84,75,30.04,29.96,8,4,14,0.07
2013-5-27,84.8,79.7,75.0,77.5,75.1,72.8,93,86,78,30.02,29.95,11,3,17,0.67
2013-5-28,85.3,82.6,79.4,78.4,77.0,75.4,89,83,79,30.03,29.96,9,5,15,0.01
2013-5-30,79.8,79.5,79.4,75.5,75.1,74.5,88,86,85,30.04,30.03,4,3,13,0.01
2013-5-31,82.6,78.7,74.1,77.7,75.2,71.3,94,89,84,30.06,29.97,11,4,16,0.44
2013-6-1,85.6,81.6,76.4,77.3,75.6,72.9,90,82,76,30.05,29.97,10,4,14,0.27
2013-6-2,86.1,82.4,78.0,76.5,74.7,72.8,86,78,69,30.03,29.96,13,4,16,0.01
2013-6-3,87.0,81.6,77.9,78.5,76.1,74.0,92,84,73,30.02,29.95,10,4,18,0.24
2013-6-4,86.0,80.7,75.3,77.4,75.2,71.9,93,84,63,30.04,29.93,8,4,15,0.12
2013-6-5,86.7,82.2,78.9,79.3,76.8,74.7,90,84,73,30.01,29.91,14,4,20,0.00
2013-6-6,85.5,81.7,77.6,75.9,74.1,71.8,87,78,71,30.02,29.93,11,4,15,0.01
2013-6-7,80.1,78.8,75.5,73.9,73.1,72.4,90,83,80,30.00,29.96,7,4,13,0.05
2013-6-10,84.8,83.5,81.9,77.3,76.7,75.9,82,80,78,30.03,29.98,9,6,16,0.02
2013-6-11,84.5,83.1,81.2,77.7,77.0,76.5,86,82,79,30.05,29.99,11,4,15,0.05
2013-6-12,81.3,80.8,79.9,77.4,76.9,76.3,90,88,87,30.04,30.00,3,2,10,0.98
2013-6-13,85.1,81.8,79.1,78.6,76.8,75.2,89,85,80,30.03,29.95,9,4,15,0.08
2013-6-14,86.8,80.6,75.8,78.5,76.3,73.9,95,87,75,29.99,29.93,11,3,22,0.82
2013-6-15,81.9,80.9,79.4,78.0,76.9,75.8,90,88,86,29.98,29.94,7,3,15,0.02
2013-6-16,85.2,84.9,84.7,78.2,77.7,77.2,81,79,77,29.96,29.96,6,4,14,0.00
2013-6-17,85.0,83.6,82.0,78.2,77.0,76.0,83,81,78,30.04,30.00,8,4,15,0.00
2013-6-18,85.8,82.6,80.1,78.6,76.5,74.3,86,82,78,30.04,29.97,10,5,16,0.00
2013-6-19,84.2,77.9,73.6,77.7,74.0,70.8,93,88,77,30.01,29.95,11,5,23,0.83
2013-6-20,85.7,81.5,76.0,78.0,75.8,72.2,89,83,76,30.02,29.95,12,4,16,0.00
2013-6-21,85.1,81.9,79.5,75.5,74.2,72.8,82,78,71,30.04,29.98,8,4,15,0.00
2013-6-22,83.8,80.3,76.9,76.2,73.8,72.4,90,81,78,30.03,29.95,9,4,18,0.06
2013-6-23,84.7,80.4,76.9,77.3,75.6,73.1,92,86,76,30.03,29.95,17,4,17,0.35
2013-6-24,85.1,80.8,77.9,78.2,76.7,74.1,92,87,80,30.04,29.98,8,4,12,0.22
2013-6-25,86.1,81.3,77.4,79.2,76.6,74.3,92,86,80,30.02,29.95,10,3,15,0.04
2013-6-26,84.1,78.7,73.3,78.1,75.1,71.5,95,89,79,30.00,29.93,14,4,19,1.18
2013-6-27,83.0,78.3,74.8,78.0,75.0,71.7,95,90,79,30.00,29.96,7,2,16,0.80
2013-6-28,86.8,81.0,74.5,78.2,75.8,72.1,95,85,74,30.00,29.94,9,3,18,0.03
2013-6-29,85.2,82.2,78.3,77.6,75.9,74.5,88,81,75,29.99,29.92,9,4,15,0.00
2013-6-30,85.4,81.1,78.5,78.2,75.3,74.0,88,83,78,30.01,29.92,8,3,19,0.71
2013-7-1,86.0,81.1,76.9,78.3,76.1,74.4,93,85,77,30.06,29.96,11,2,14,0.06
2013-7-2,84.1,79.9,75.3,76.6,74.7,72.0,92,84,77,30.09,30.00,9,4,18,0.62
2013-7-3,84.3,80.4,74.0,77.4,75.1,71.2,92,84,78,30.06,29.98,10,5,20,0.26
2013-7-4,85.9,82.5,79.1,79.4,77.0,75.4,90,84,77,30.05,29.97,14,5,16,0.06
2013-7-5,86.6,83.1,80.4,77.0,75.5,73.7,84,78,71,30.04,29.97,10,5,14,0.00
2013-7-6,78.3,77.5,75.8,75.8,74.9,73.6,93,92,91,29.95,29.92,4,2,10,0.23
2013-7-7,79.4,77.1,76.4,76.9,74.9,74.4,94,93,92,29.95,29.90,4,1,12,0.03
2013-7-9,86.7,83.4,79.4,79.4,78.1,75.6,92,84,79,30.06,29.99,9,4,15,0.17
2013-7-14,83.9,80.1,75.2,77.9,75.2,72.5,94,85,75,29.95,29.91,7,3,11,1.38
2013-7-15,83.7,77.5,74.6,77.2,74.3,72.8,94,90,79,29.97,29.92,6,1,9,0.01
2013-7-16,83.6,82.6,82.1,78.3,77.9,77.3,87,86,84,30.03,29.98,8,4,15,0.08
2013-7-17,86.8,83.3,80.2,79.1,77.3,74.5,87,82,76,30.04,29.96,9,4,16,0.00
2013-7-18,82.2,77.7,73.5,78.0,75.3,71.8,96,92,84,30.07,29.93,9,3,24,1.92
2013-7-19,86.9,83.4,77.5,79.6,77.3,74.8,95,82,76,30.08,30.01,9,4,15,0.01
2013-7-20,82.2,82.2,82.2,76.2,76.2,76.2,82,82,82,30.03,30.03,7,7,14,0.00
2013-7-21,86.5,82.5,74.2,78.2,76.0,70.8,94,81,73,30.04,29.96,11,5,21,0.40
2013-7-22,83.2,80.8,77.0,78.3,76.0,74.8,94,86,80,30.05,29.98,5,3,13,1.09
2013-7-26,82.0,80.4,77.7,76.6,75.3,74.2,90,85,80,30.05,29.98,6,2,12,0.06
2013-7-27,87.1,80.6,74.6,77.6,75.3,72.3,93,84,73,30.01,29.95,11,2,16,0.15
2013-7-28,85.7,80.5,74.6,78.1,75.2,71.8,91,84,73,30.02,29.94,5,2,12,0.03
2013-7-29,91.3,83.2,77.0,78.1,74.9,70.5,91,77,52,30.04,29.97,10,2,14,0.00
2013-8-1,82.8,79.9,78.2,76.8,75.7,75.0,91,87,82,30.02,30.00,4,2,11,0.08
2013-8-2,88.7,86.0,83.3,79.3,77.9,76.4,82,77,71,30.06,29.99,6,4,15,0.00
2013-8-3,88.1,85.0,82.4,80.7,78.4,76.2,84,81,77,30.08,29.97,9,4,15,0.00
2013-8-5,87.7,84.4,78.9,77.7,76.3,74.1,87,77,71,29.99,29.90,7,3,13,0.04
2013-8-6,88.0,82.3,76.0,77.9,75.4,73.1,92,80,69,29.95,29.87,9,3,13,0.02
2013-8-7,86.9,81.6,75.1,78.7,76.0,72.8,94,84,72,29.95,29.86,7,3,17,0.57
2013-8-8,87.2,83.8,78.8,78.8,76.8,74.3,89,80,72,29.91,29.85,19,4,22,0.12
2013-8-9,86.8,82.1,76.8,79.3,77.2,74.0,93,85,76,29.95,29.88,7,2,15,0.46
2013-8-10,87.9,83.8,78.6,79.6,77.6,74.1,91,82,75,29.98,29.90,11,4,16,0.22
2013-8-11,87.3,81.2,76.0,78.0,75.4,71.8,90,83,73,29.99,29.91,8,2,24,0.14
2013-8-12,86.7,79.5,74.5,78.9,74.8,71.2,94,86,74,29.98,29.90,9,2,13,0.33
2013-8-13,84.3,78.5,76.0,77.6,75.1,73.5,93,89,80,29.97,29.93,4,1,13,0.00
2013-8-14,89.1,86.2,83.1,78.9,77.7,76.0,84,76,67,29.99,29.92,10,4,20,0.01
2013-8-15,88.1,84.0,79.5,78.8,77.1,75.4,88,80,72,30.00,29.94,8,3,12,0.00
2013-8-16,83.2,82.4,81.4,78.0,76.7,75.9,85,83,82,29.94,29.87,7,3,11,0.16
2013-8-17,88.0,83.4,78.2,78.7,77.0,75.0,90,82,72,29.97,29.87,11,3,14,0.00
2013-8-18,86.7,82.7,78.2,78.5,76.8,74.3,91,83,69,29.97,29.89,8,3,18,0.08
2013-8-19,86.6,82.9,79.0,79.5,77.7,73.9,92,84,76,29.93,29.85,9,3,19,0.43
2013-8-20,87.1,80.9,77.2,78.0,76.4,73.3,94,86,73,29.99,29.85,13,4,16,0.21
2013-8-21,88.0,80.8,73.7,80.3,76.5,71.7,95,87,73,29.99,29.92,9,2,18,0.59
2013-8-23,82.4,82.0,80.8,77.6,77.3,77.0,90,86,84,29.96,29.90,2,2,11,0.00
2013-8-24,87.4,84.2,81.3,79.7,77.0,75.2,84,79,75,30.01,29.93,9,5,15,0.00
2013-8-25,87.9,83.7,80.9,78.6,76.5,74.8,86,79,72,30.01,29.93,10,5,17,0.02
2013-8-26,88.2,83.0,77.8,79.7,77.2,74.4,91,83,74,29.96,29.87,11,3,15,0.05
2013-8-27,88.5,82.7,76.5,79.2,76.4,74.3,93,82,68,29.96,29.87,7,2,14,0.19
2013-8-28,87.7,82.6,75.7,79.8,76.7,72.9,91,83,74,30.00,29.91,7,3,14,0.04
2013-8-29,87.4,82.7,79.3,78.9,77.0,75.4,90,83,74,29.99,29.90,8,2,15,0.01
2013-8-30,89.3,83.0,77.6,79.6,77.1,74.6,92,83,68,29.98,29.90,8,2,17,0.00
2013-8-31,88.3,83.7,77.5,80.2,77.9,74.3,91,83,74,29.97,29.89,9,3,14,0.00
2013-9-1,88.8,84.5,78.6,79.9,77.9,75.4,91,81,73,29.96,29.88,7,3,13,0.00
2013-9-2,88.7,84.8,81.1,78.4,76.8,75.0,84,77,70,29.93,29.85,9,4,13,0.00
2013-9-3,84.2,82.2,79.0,77.5,76.6,73.0,89,83,80,29.89,29.83,10,5,21,0.31
2013-9-4,85.7,81.1,77.5,79.6,76.6,72.7,93,86,81,29.89,29.82,11,3,19,0.41
2013-9-5,82.1,77.3,74.7,78.2,74.9,72.6,95,92,87,29.94,29.82,7,1,15,0.73
2013-9-6,85.2,79.2,74.4,79.2,75.4,72.9,95,88,78,29.94,29.85,10,2,16,0.04
2013-9-7,84.2,79.5,75.3,77.8,75.1,72.6,93,87,76,29.93,29.85,7,1,12,0.06
2013-9-8,90.7,84.5,79.5,77.5,75.8,74.9,88,76,61,29.93,29.84,7,2,15,0.13
2013-9-9,89.4,82.8,76.5,80.6,77.0,73.7,92,83,72,29.97,29.87,10,3,13,0.00
2013-9-10,87.5,81.5,76.6,78.6,75.7,73.8,91,83,73,30.00,29.91,7,2,15,0.00
2013-9-11,85.8,81.5,76.2,77.8,75.8,72.7,90,83,75,29.97,29.88,8,2,15,0.10
2013-9-12,86.4,81.6,77.3,79.1,77.1,75.1,94,86,77,29.89,29.79,11,3,17,0.40
2013-9-14,78.6,78.4,78.3,75.4,75.1,74.8,90,90,89,29.92,29.91,1,0,3,0.00
2013-9-15,88.7,82.7,75.8,80.0,77.3,73.5,94,84,74,29.97,29.88,9,2,14,0.00
2013-9-16,88.8,83.6,76.9,80.4,77.7,74.1,92,83,73,29.97,29.86,9,2,13,0.02
2013-9-17,89.0,83.4,79.2,80.1,77.7,76.2,91,83,74,29.94,29.84,8,2,15,0.00
2013-9-19,93.1,85.7,76.4,79.9,76.9,71.9,93,76,61,29.93,29.83,8,2,14,0.00
2013-9-20,88.9,81.8,77.9,80.8,76.8,74.4,91,85,76,29.92,29.81,8,2,11,0.64
2013-9-21,87.8,82.1,76.9,78.8,76.4,73.8,92,83,73,29.88,29.79,5,2,7,0.00
2013-9-22,92.3,82.9,76.0,80.1,76.4,73.2,92,81,61,29.94,29.83,8,2,15,0.00
2013-9-23,89.0,83.6,75.7,79.9,77.4,72.2,89,82,73,30.00,29.90,7,2,14,0.00
2013-9-24,89.8,84.9,79.0,80.0,77.0,74.8,90,78,68,29.97,29.87,7,2,15,0.00
2013-9-26,86.8,82.2,78.0,77.9,75.0,73.1,86,79,74,29.91,29.79,9,2,17,0.00
2013-9-27,93.3,82.7,75.0,77.7,74.1,70.5,91,76,59,29.92,29.80,8,2,14,0.00
2013-9-28,93.1,83.3,74.5,78.7,73.5,70.7,88,74,51,29.94,29.83,11,2,15,0.00
2013-9-29,92.2,83.5,75.8,80.3,76.2,72.3,90,79,62,29.95,29.84,13,2,13,0.00
2013-9-30,82.9,79.5,76.8,77.6,75.7,71.6,93,88,84,30.00,29.91,8,1,16,0.12
2013-10-1,88.8,85.8,82.8,79.3,78.0,76.7,83,78,71,29.98,29.90,8,3,13,0.00
2013-10-2,88.9,83.1,77.6,78.1,76.3,74.1,90,80,68,29.94,29.85,9,3,16,0.02
2013-10-3,87.9,82.5,78.0,79.7,77.0,74.9,93,84,74,29.95,29.85,10,2,13,0.22
2013-10-4,88.6,80.8,73.2,80.2,76.2,71.7,95,86,73,29.97,29.82,14,2,30,2.63
2013-10-5,81.4,74.2,72.1,76.1,72.4,70.6,96,94,84,29.95,29.85,4,1,7,0.05
2013-10-7,86.8,83.4,78.9,79.1,76.1,74.4,86,79,72,29.92,29.84,8,2,14,0.00
2013-10-8,87.3,81.8,75.8,78.8,76.0,73.3,92,83,72,29.96,29.87,5,1,10,0.01
2013-10-10,87.5,86.1,84.7,78.2,77.5,76.9,80,76,71,29.91,29.85,7,4,13,0.00
2013-10-13,80.2,78.6,77.9,76.0,74.9,74.1,91,88,87,29.91,29.85,7,2,7,0.18
2013-10-14,88.7,82.7,77.3,77.6,75.9,74.0,92,80,67,29.90,29.83,9,2,17,0.00
2013-10-15,81.4,79.4,76.0,75.6,74.8,72.6,91,86,81,29.92,29.85,5,1,8,0.00
2013-10-16,89.9,80.9,74.1,77.4,73.8,69.0,92,80,65,29.91,29.82,9,2,15,0.00
2013-10-17,86.9,79.9,72.2,77.2,73.5,68.8,90,81,72,29.94,29.83,6,2,13,0.00
2013-10-18,84.5,79.2,72.9,76.9,73.9,69.1,90,84,74,29.93,29.84,3,1,6,0.00
2013-10-19,86.3,80.1,74.8,78.9,75.5,72.3,92,86,75,29.91,29.83,5,1,10,0.29
2013-10-30,84.8,82.5,81.8,76.9,75.9,75.2,83,81,76,29.91,29.85,7,3,10,0.00
2013-10-31,81.6,79.9,77.9,76.1,75.2,74.1,89,86,83,29.90,29.82,3,1,14,0.02
2013-11-5,82.5,78.2,75.5,75.0,73.4,72.0,89,85,74,29.86,29.80,2,1,8,0.00
2013-11-6,85.7,79.5,73.6,77.5,74.0,70.9,92,84,70,29.90,29.80,5,1,10,0.00
2013-11-8,86.2,81.1,76.1,77.3,75.4,73.0,90,83,72,29.92,29.83,4,2,9,0.00
2013-11-9,86.6,80.4,72.9,77.4,74.9,71.1,95,84,72,29.97,29.88,7,2,13,0.03
2013-11-10,86.8,80.9,76.2,77.5,75.1,72.1,91,83,72,29.99,29.90,10,3,19,0.25
2013-11-11,86.9,81.4,74.8,77.8,75.7,73.0,94,84,72,30.01,29.92,13,3,15,0.09
2013-11-12,87.0,82.7,78.8,77.9,76.1,74.3,90,81,72,29.98,29.87,9,4,15,0.13
2013-11-13,84.2,80.6,79.4,75.8,74.7,74.1,85,82,76,29.94,29.87,9,3,14,0.00
2013-11-18,84.9,81.4,78.4,72.7,71.1,69.9,78,71,65,29.82,29.73,6,3,13,0.24
2013-11-19,82.9,78.2,72.1,72.9,70.7,69.3,92,78,68,29.89,29.75,8,2,11,0.06
2013-11-20,84.8,78.9,70.3,74.2,71.6,67.2,91,79,69,29.97,29.86,7,2,12,0.00
2013-11-21,82.5,79.1,76.0,76.2,74.3,72.1,91,85,79,30.00,29.91,12,4,17,0.35
2013-11-22,82.1,78.6,74.2,73.7,72.7,71.9,93,82,74,29.96,29.89,8,3,16,0.04
2013-11-24,85.1,81.6,76.0,75.9,74.7,72.5,89,80,73,29.93,29.85,7,2,15,0.00
2013-11-25,83.5,78.8,72.5,76.1,73.5,70.1,92,84,71,29.99,29.90,11,3,16,0.11
2013-11-26,82.4,79.3,76.4,74.1,73.3,72.5,88,82,75,29.97,29.92,13,5,16,0.01
2013-11-29,79.8,79.3,78.6,73.2,72.6,71.6,82,80,76,29.94,29.92,8,4,12,0.07
2013-11-30,80.2,76.6,72.6,74.0,72.1,70.3,95,86,74,29.97,29.85,9,4,17,1.24
2013-12-1,81.7,75.3,71.1,76.1,72.2,68.8,96,90,81,29.90,29.83,11,2,14,0.44
2013-12-4,75.7,74.5,73.8,73.5,73.0,72.5,96,95,93,29.99,29.95,2,0,6,0.38
2013-12-5,80.1,75.4,71.3,74.8,72.6,69.8,96,91,81,30.05,29.93,6,1,17,1.45
2013-12-6,82.5,76.5,70.5,75.7,72.0,69.2,96,86,76,30.03,29.94,11,3,16,0.03
2013-12-7,81.4,78.8,73.9,73.5,71.5,69.8,91,79,74,30.05,29.95,14,6,22,0.22
2013-12-8,80.6,78.8,75.5,72.6,70.7,68.4,85,76,70,30.06,29.96,16,8,23,0.13
2013-12-9,83.1,79.7,75.4,74.1,72.6,70.8,91,79,71,30.08,29.99,12,6,25,0.12
2013-12-10,83.9,78.6,73.3,76.1,73.5,71.2,94,85,72,30.07,29.98,11,3,22,0.25
2013-12-11,81.4,79.2,75.2,76.5,73.9,72.1,90,84,81,30.09,29.98,10,5,16,0.08
2013-12-12,84.0,80.4,75.5,74.8,73.5,71.7,88,80,73,30.05,29.93,8,3,15,0.00
2013-12-13,79.6,78.9,76.4,72.1,70.6,68.7,78,76,72,30.03,29.96,7,4,14,0.00
2013-12-14,83.5,78.7,72.9,76.3,72.6,68.4,91,82,74,30.06,29.97,10,3,17,0.05
2013-12-15,81.6,79.1,77.0,75.8,72.9,68.3,91,82,69,30.09,29.98,12,4,22,0.31
2013-12-16,82.5,77.8,74.3,76.0,73.6,70.9,93,87,80,30.06,29.95,10,3,20,0.15
2013-12-17,81.8,77.9,74.7,75.0,72.5,71.3,92,84,77,30.06,29.96,9,4,15,0.09
2013-12-20,78.5,78.0,77.1,72.4,70.3,68.6,85,78,72,30.03,30.00,8,5,15,0.45
2013-12-21,81.9,78.6,75.1,74.2,72.0,69.3,89,80,75,30.05,29.96,11,6,22,0.05
2013-12-22,78.4,78.3,78.2,72.1,71.9,71.5,81,81,80,30.03,30.02,7,7,14,0.00
2013-12-24,72.6,71.6,71.0,70.8,69.7,69.2,94,94,93,29.92,29.89,3,1,6,0.30
2013-12-25,83.7,74.5,67.1,73.9,69.2,65.3,95,84,68,29.98,29.85,5,1,11,0.03
2013-12-26,83.2,76.1,67.7,75.6,71.2,65.3,92,85,75,30.07,29.94,8,1,12,0.00
2013-12-27,83.2,79.0,74.9,75.7,73.8,72.4,92,84,76,30.09,30.00,8,2,14,0.00
2013-12-28,82.8,79.4,75.3,74.9,73.2,71.5,89,81,76,30.07,29.97,9,2,13,0.00
2013-12-29,83.1,79.4,76.7,74.3,72.4,70.8,84,79,71,30.04,29.94,10,3,15,0.00
2013-12-30,82.5,78.3,73.9,74.8,72.2,70.1,88,81,73,30.07,29.98,7,3,16,0.00
2013-12-31,83.1,80.4,76.7,74.1,72.2,70.6,83,76,73,30.09,30.00,10,5,21,0.05
2014-1-1,80.8,78.1,73.2,74.1,72.2,69.4,91,82,75,30.08,29.98,12,5,19,0.05
2014-1-2,82.2,78.0,74.6,74.3,72.2,69.6,88,82,75,30.03,29.92,11,4,18,0.10